sensor_id;sensor_type;location;lat;lon;timestamp;pressure;altitude;pressure_sealevel;temperature
30001;BMP280;16845;48.670;9.000;2023-12-20T00:00:55;95473.69;;;7.69
30001;BMP280;16845;48.670;9.000;2023-12-20T00:03:21;95467.31;;;7.55
30001;BMP280;16845;48.670;9.000;2023-12-20T00:05:48;95458.69;;;7.72
30001;BMP280;16845;48.670;9.000;2023-12-20T00:08:15;95462.19;;;7.62
30001;BMP280;16845;48.670;9.000;2023-12-20T00:10:41;95464.84;;;7.53
30001;BMP280;16845;48.670;9.000;2023-12-20T00:13:08;95454.88;;;7.52
30001;BMP280;16845;48.670;9.000;2023-12-20T00:15:34;95456.81;;;7.80
30001;BMP280;16845;48.670;9.000;2023-12-20T00:18:03;95455.34;;;7.72
30001;BMP280;16845;48.670;9.000;2023-12-20T00:20:29;95456.72;;;7.86
30001;BMP280;16845;48.670;9.000;2023-12-20T00:22:56;95449.66;;;7.64
30001;BMP280;16845;48.670;9.000;2023-12-20T00:25:23;95447.38;;;7.53
30001;BMP280;16845;48.670;9.000;2023-12-20T00:27:50;95438.97;;;7.57
30001;BMP280;16845;48.670;9.000;2023-12-20T00:30:16;95441.44;;;7.13
30001;BMP280;16845;48.670;9.000;2023-12-20T00:32:43;95442.06;;;7.27
30001;BMP280;16845;48.670;9.000;2023-12-20T00:35:11;95458.25;;;7.05
30001;BMP280;16845;48.670;9.000;2023-12-20T00:37:37;95450.00;;;7.00
30001;BMP280;16845;48.670;9.000;2023-12-20T00:40:05;95431.25;;;7.25
30001;BMP280;16845;48.670;9.000;2023-12-20T00:42:32;95433.66;;;7.30
30001;BMP280;16845;48.670;9.000;2023-12-20T00:44:59;95435.34;;;7.29
30001;BMP280;16845;48.670;9.000;2023-12-20T00:47:26;95431.38;;;7.19
30001;BMP280;16845;48.670;9.000;2023-12-20T00:49:52;95424.59;;;7.27
30001;BMP280;16845;48.670;9.000;2023-12-20T00:52:20;95424.63;;;7.24
30001;BMP280;16845;48.670;9.000;2023-12-20T00:54:47;95423.03;;;7.20
30001;BMP280;16845;48.670;9.000;2023-12-20T00:57:13;95430.06;;;7.44
30001;BMP280;16845;48.670;9.000;2023-12-20T00:59:40;95423.44;;;7.43
30001;BMP280;16845;48.670;9.000;2023-12-20T01:02:06;95427.97;;;7.23
30001;BMP280;16845;48.670;9.000;2023-12-20T01:04:33;95440.56;;;7.16
30001;BMP280;16845;48.670;9.000;2023-12-20T01:07:00;95445.06;;;6.97
30001;BMP280;16845;48.670;9.000;2023-12-20T01:09:28;95445.78;;;7.04
30001;BMP280;16845;48.670;9.000;2023-12-20T01:11:54;95451.75;;;6.95
30001;BMP280;16845;48.670;9.000;2023-12-20T01:14:21;95442.22;;;7.18
30001;BMP280;16845;48.670;9.000;2023-12-20T01:16:47;95440.88;;;6.99
30001;BMP280;16845;48.670;9.000;2023-12-20T01:19:14;95440.22;;;6.88
30001;BMP280;16845;48.670;9.000;2023-12-20T01:21:41;95440.44;;;7.23
30001;BMP280;16845;48.670;9.000;2023-12-20T01:24:07;95445.44;;;7.23
30001;BMP280;16845;48.670;9.000;2023-12-20T01:26:35;95443.19;;;7.10
30001;BMP280;16845;48.670;9.000;2023-12-20T01:29:02;95439.00;;;7.10
30001;BMP280;16845;48.670;9.000;2023-12-20T01:31:28;95446.72;;;6.98
30001;BMP280;16845;48.670;9.000;2023-12-20T01:33:55;95445.72;;;7.07
30001;BMP280;16845;48.670;9.000;2023-12-20T01:36:21;95451.34;;;7.19
30001;BMP280;16845;48.670;9.000;2023-12-20T01:38:48;95438.31;;;7.02
30001;BMP280;16845;48.670;9.000;2023-12-20T01:41:14;95441.44;;;7.15
30001;BMP280;16845;48.670;9.000;2023-12-20T01:43:42;95443.16;;;7.11
30001;BMP280;16845;48.670;9.000;2023-12-20T01:46:17;95452.97;;;7.22
30001;BMP280;16845;48.670;9.000;2023-12-20T01:48:44;95450.41;;;7.23
30001;BMP280;16845;48.670;9.000;2023-12-20T01:51:11;95445.88;;;6.98
30001;BMP280;16845;48.670;9.000;2023-12-20T01:53:39;95444.06;;;7.06
30001;BMP280;16845;48.670;9.000;2023-12-20T01:56:06;95443.06;;;7.17
30001;BMP280;16845;48.670;9.000;2023-12-20T01:58:33;95446.41;;;7.16
30001;BMP280;16845;48.670;9.000;2023-12-20T02:01:02;95447.50;;;7.00
30001;BMP280;16845;48.670;9.000;2023-12-20T02:03:28;95441.00;;;7.37
30001;BMP280;16845;48.670;9.000;2023-12-20T02:05:55;95434.81;;;7.12
30001;BMP280;16845;48.670;9.000;2023-12-20T02:08:21;95441.38;;;7.18
30001;BMP280;16845;48.670;9.000;2023-12-20T02:10:48;95440.66;;;7.11
30001;BMP280;16845;48.670;9.000;2023-12-20T02:13:15;95453.69;;;7.28
30001;BMP280;16845;48.670;9.000;2023-12-20T02:15:42;95444.84;;;7.09
30001;BMP280;16845;48.670;9.000;2023-12-20T02:18:10;95437.28;;;7.15
30001;BMP280;16845;48.670;9.000;2023-12-20T02:20:36;95439.56;;;7.27
30001;BMP280;16845;48.670;9.000;2023-12-20T02:23:04;95434.78;;;7.15
30001;BMP280;16845;48.670;9.000;2023-12-20T02:25:30;95442.63;;;7.41
30001;BMP280;16845;48.670;9.000;2023-12-20T02:27:57;95435.13;;;7.41
30001;BMP280;16845;48.670;9.000;2023-12-20T02:30:23;95431.75;;;7.44
30001;BMP280;16845;48.670;9.000;2023-12-20T02:32:51;95442.09;;;7.24
30001;BMP280;16845;48.670;9.000;2023-12-20T02:35:18;95441.00;;;7.37
30001;BMP280;16845;48.670;9.000;2023-12-20T02:37:45;95437.56;;;7.44
30001;BMP280;16845;48.670;9.000;2023-12-20T02:40:13;95434.69;;;7.20
30001;BMP280;16845;48.670;9.000;2023-12-20T02:42:40;95441.28;;;7.22
30001;BMP280;16845;48.670;9.000;2023-12-20T02:45:07;95437.56;;;7.43
30001;BMP280;16845;48.670;9.000;2023-12-20T02:47:34;95442.78;;;7.32
30001;BMP280;16845;48.670;9.000;2023-12-20T02:50:00;95436.56;;;7.07
30001;BMP280;16845;48.670;9.000;2023-12-20T02:52:28;95427.16;;;7.23
30001;BMP280;16845;48.670;9.000;2023-12-20T02:54:55;95432.31;;;7.14
30001;BMP280;16845;48.670;9.000;2023-12-20T02:57:23;95436.28;;;7.24
30001;BMP280;16845;48.670;9.000;2023-12-20T02:59:49;95438.31;;;7.49
30001;BMP280;16845;48.670;9.000;2023-12-20T03:02:16;95450.16;;;7.38
30001;BMP280;16845;48.670;9.000;2023-12-20T03:04:42;95439.13;;;7.50
30001;BMP280;16845;48.670;9.000;2023-12-20T03:07:09;95438.94;;;7.59
30001;BMP280;16845;48.670;9.000;2023-12-20T03:09:35;95448.38;;;7.45
30001;BMP280;16845;48.670;9.000;2023-12-20T03:12:23;95450.97;;;7.40
30001;BMP280;16845;48.670;9.000;2023-12-20T03:14:50;95450.97;;;7.40
30001;BMP280;16845;48.670;9.000;2023-12-20T03:17:16;95450.97;;;7.40
30001;BMP280;16845;48.670;9.000;2023-12-20T03:19:43;95457.69;;;7.35
30001;BMP280;16845;48.670;9.000;2023-12-20T03:22:09;95458.06;;;7.14
30001;BMP280;16845;48.670;9.000;2023-12-20T03:24:36;95454.63;;;7.21
30001;BMP280;16845;48.670;9.000;2023-12-20T03:27:03;95458.09;;;7.58
30001;BMP280;16845;48.670;9.000;2023-12-20T03:29:31;95460.03;;;7.43
30001;BMP280;16845;48.670;9.000;2023-12-20T03:31:57;95466.78;;;7.39
30001;BMP280;16845;48.670;9.000;2023-12-20T03:34:24;95471.72;;;7.41
30001;BMP280;16845;48.670;9.000;2023-12-20T03:36:50;95471.09;;;7.31
30001;BMP280;16845;48.670;9.000;2023-12-20T03:39:17;95469.22;;;7.42
30001;BMP280;16845;48.670;9.000;2023-12-20T03:41:43;95464.81;;;7.55
30001;BMP280;16845;48.670;9.000;2023-12-20T03:44:10;95472.34;;;7.53
30001;BMP280;16845;48.670;9.000;2023-12-20T03:46:38;95482.19;;;7.59
30001;BMP280;16845;48.670;9.000;2023-12-20T03:49:04;95481.75;;;7.39
30001;BMP280;16845;48.670;9.000;2023-12-20T03:51:31;95475.75;;;7.49
30001;BMP280;16845;48.670;9.000;2023-12-20T03:53:57;95480.84;;;7.43
30001;BMP280;16845;48.670;9.000;2023-12-20T03:56:24;95480.63;;;7.55
30001;BMP280;16845;48.670;9.000;2023-12-20T03:58:50;95475.63;;;7.10
30001;BMP280;16845;48.670;9.000;2023-12-20T04:01:16;95476.28;;;7.19
30001;BMP280;16845;48.670;9.000;2023-12-20T04:03:44;95475.75;;;7.49
30001;BMP280;16845;48.670;9.000;2023-12-20T04:06:16;95475.38;;;7.23
30001;BMP280;16845;48.670;9.000;2023-12-20T04:08:43;95478.50;;;7.36
30001;BMP280;16845;48.670;9.000;2023-12-20T04:11:09;95482.72;;;7.32
30001;BMP280;16845;48.670;9.000;2023-12-20T04:13:36;95476.78;;;7.39
30001;BMP280;16845;48.670;9.000;2023-12-20T04:16:03;95477.78;;;7.29
30001;BMP280;16845;48.670;9.000;2023-12-20T04:18:29;95472.09;;;7.21
30001;BMP280;16845;48.670;9.000;2023-12-20T04:20:57;95473.00;;;7.17
30001;BMP280;16845;48.670;9.000;2023-12-20T04:23:24;95480.91;;;6.92
30001;BMP280;16845;48.670;9.000;2023-12-20T04:25:50;95489.09;;;6.98
30001;BMP280;16845;48.670;9.000;2023-12-20T04:28:17;95485.88;;;6.93
30001;BMP280;16845;48.670;9.000;2023-12-20T04:30:44;95492.34;;;7.03
30001;BMP280;16845;48.670;9.000;2023-12-20T04:33:10;95488.09;;;7.10
30001;BMP280;16845;48.670;9.000;2023-12-20T04:35:37;95492.06;;;7.21
30001;BMP280;16845;48.670;9.000;2023-12-20T04:38:05;95488.63;;;7.25
30001;BMP280;16845;48.670;9.000;2023-12-20T04:40:31;95490.81;;;6.96
30001;BMP280;16845;48.670;9.000;2023-12-20T04:42:58;95491.66;;;6.94
30001;BMP280;16845;48.670;9.000;2023-12-20T04:45:25;95506.16;;;7.22
30001;BMP280;16845;48.670;9.000;2023-12-20T04:47:51;95521.06;;;7.28
30001;BMP280;16845;48.670;9.000;2023-12-20T04:50:18;95516.09;;;7.25
30001;BMP280;16845;48.670;9.000;2023-12-20T04:52:45;95512.72;;;7.29
30001;BMP280;16845;48.670;9.000;2023-12-20T04:55:13;95503.59;;;7.27
30001;BMP280;16845;48.670;9.000;2023-12-20T04:57:39;95512.59;;;7.37
30001;BMP280;16845;48.670;9.000;2023-12-20T05:00:07;95512.88;;;7.20
30001;BMP280;16845;48.670;9.000;2023-12-20T05:02:33;95518.38;;;7.39
30001;BMP280;16845;48.670;9.000;2023-12-20T05:05:00;95516.50;;;7.01
30001;BMP280;16845;48.670;9.000;2023-12-20T05:07:26;95512.03;;;7.20
30001;BMP280;16845;48.670;9.000;2023-12-20T05:09:53;95522.72;;;7.26
30001;BMP280;16845;48.670;9.000;2023-12-20T05:12:21;95522.09;;;7.15
30001;BMP280;16845;48.670;9.000;2023-12-20T05:14:47;95515.94;;;7.34
30001;BMP280;16845;48.670;9.000;2023-12-20T05:17:14;95532.44;;;7.43
30001;BMP280;16845;48.670;9.000;2023-12-20T05:19:40;95540.13;;;7.31
30001;BMP280;16845;48.670;9.000;2023-12-20T05:22:07;95536.06;;;7.25
30001;BMP280;16845;48.670;9.000;2023-12-20T05:24:34;95547.59;;;7.32
30001;BMP280;16845;48.670;9.000;2023-12-20T05:27:00;95545.50;;;7.08
30001;BMP280;16845;48.670;9.000;2023-12-20T05:29:28;95545.31;;;7.19
30001;BMP280;16845;48.670;9.000;2023-12-20T05:31:54;95549.56;;;7.15
30001;BMP280;16845;48.670;9.000;2023-12-20T05:34:21;95549.25;;;7.33
30001;BMP280;16845;48.670;9.000;2023-12-20T05:36:48;95558.34;;;7.36
30001;BMP280;16845;48.670;9.000;2023-12-20T05:39:14;95555.66;;;7.46
30001;BMP280;16845;48.670;9.000;2023-12-20T05:41:41;95554.00;;;7.47
30001;BMP280;16845;48.670;9.000;2023-12-20T05:44:07;95563.41;;;7.33
30001;BMP280;16845;48.670;9.000;2023-12-20T05:46:35;95564.31;;;7.27
30001;BMP280;16845;48.670;9.000;2023-12-20T05:49:02;95570.91;;;7.30
30001;BMP280;16845;48.670;9.000;2023-12-20T05:51:28;95569.97;;;7.37
30001;BMP280;16845;48.670;9.000;2023-12-20T05:53:55;95577.69;;;7.23
30001;BMP280;16845;48.670;9.000;2023-12-20T05:56:21;95582.00;;;7.14
30001;BMP280;16845;48.670;9.000;2023-12-20T05:58:48;95568.34;;;7.36
30001;BMP280;16845;48.670;9.000;2023-12-20T06:01:14;95578.53;;;7.24
30001;BMP280;16845;48.670;9.000;2023-12-20T06:03:44;95585.34;;;7.11
30001;BMP280;16845;48.670;9.000;2023-12-20T06:06:10;95587.53;;;7.31
30001;BMP280;16845;48.670;9.000;2023-12-20T06:08:42;95605.72;;;7.40
30001;BMP280;16845;48.670;9.000;2023-12-20T06:11:09;95612.72;;;7.17
30001;BMP280;16845;48.670;9.000;2023-12-20T06:13:35;95599.25;;;7.27
30001;BMP280;16845;48.670;9.000;2023-12-20T06:16:05;95603.53;;;7.21
30001;BMP280;16845;48.670;9.000;2023-12-20T06:18:31;95602.69;;;7.20
30001;BMP280;16845;48.670;9.000;2023-12-20T06:20:59;95595.75;;;7.37
30001;BMP280;16845;48.670;9.000;2023-12-20T06:23:26;95598.09;;;7.46
30001;BMP280;16845;48.670;9.000;2023-12-20T06:25:52;95604.00;;;7.44
30001;BMP280;16845;48.670;9.000;2023-12-20T06:28:19;95597.66;;;7.23
30001;BMP280;16845;48.670;9.000;2023-12-20T06:30:45;95604.81;;;7.43
30001;BMP280;16845;48.670;9.000;2023-12-20T06:33:12;95609.00;;;7.42
30001;BMP280;16845;48.670;9.000;2023-12-20T06:35:38;95604.81;;;7.44
30001;BMP280;16845;48.670;9.000;2023-12-20T06:38:06;95607.09;;;7.58
30001;BMP280;16845;48.670;9.000;2023-12-20T06:40:33;95601.38;;;7.51
30001;BMP280;16845;48.670;9.000;2023-12-20T06:42:59;95592.34;;;7.43
30001;BMP280;16845;48.670;9.000;2023-12-20T06:45:38;95591.41;;;7.50
30001;BMP280;16845;48.670;9.000;2023-12-20T06:48:05;95593.03;;;7.52
30001;BMP280;16845;48.670;9.000;2023-12-20T06:50:31;95601.84;;;7.21
30001;BMP280;16845;48.670;9.000;2023-12-20T06:52:58;95600.59;;;7.48
30001;BMP280;16845;48.670;9.000;2023-12-20T06:55:26;95626.06;;;7.13
30001;BMP280;16845;48.670;9.000;2023-12-20T06:57:52;95629.22;;;7.24
30001;BMP280;16845;48.670;9.000;2023-12-20T07:00:19;95627.66;;;7.19
30001;BMP280;16845;48.670;9.000;2023-12-20T07:02:45;95628.31;;;7.30
30001;BMP280;16845;48.670;9.000;2023-12-20T07:05:12;95638.91;;;7.45
30001;BMP280;16845;48.670;9.000;2023-12-20T07:07:39;95632.19;;;7.49
30001;BMP280;16845;48.670;9.000;2023-12-20T07:10:06;95631.53;;;7.36
30001;BMP280;16845;48.670;9.000;2023-12-20T07:12:34;95638.81;;;7.51
30001;BMP280;16845;48.670;9.000;2023-12-20T07:15:01;95636.25;;;7.56
30001;BMP280;16845;48.670;9.000;2023-12-20T07:17:27;95640.59;;;7.43
30001;BMP280;16845;48.670;9.000;2023-12-20T07:19:54;95648.88;;;7.47
30001;BMP280;16845;48.670;9.000;2023-12-20T07:22:20;95658.97;;;7.39
30001;BMP280;16845;48.670;9.000;2023-12-20T07:24:47;95664.03;;;7.35
30001;BMP280;16845;48.670;9.000;2023-12-20T07:27:14;95668.72;;;7.54
30001;BMP280;16845;48.670;9.000;2023-12-20T07:29:42;95674.63;;;7.49
30001;BMP280;16845;48.670;9.000;2023-12-20T07:32:08;95687.09;;;7.50
30001;BMP280;16845;48.670;9.000;2023-12-20T07:34:35;95688.59;;;7.60
30001;BMP280;16845;48.670;9.000;2023-12-20T07:37:03;95690.69;;;7.33
30001;BMP280;16845;48.670;9.000;2023-12-20T07:39:30;95697.16;;;7.44
30001;BMP280;16845;48.670;9.000;2023-12-20T07:41:56;95697.22;;;7.41
30001;BMP280;16845;48.670;9.000;2023-12-20T07:44:23;95686.88;;;7.64
30001;BMP280;16845;48.670;9.000;2023-12-20T07:46:51;95692.69;;;7.64
30001;BMP280;16845;48.670;9.000;2023-12-20T07:49:18;95699.34;;;7.65
30001;BMP280;16845;48.670;9.000;2023-12-20T07:51:45;95695.91;;;7.72
30001;BMP280;16845;48.670;9.000;2023-12-20T07:54:11;95698.84;;;7.42
30001;BMP280;16845;48.670;9.000;2023-12-20T07:56:38;95697.75;;;7.61
30001;BMP280;16845;48.670;9.000;2023-12-20T07:59:05;95697.94;;;7.49
30001;BMP280;16845;48.670;9.000;2023-12-20T08:01:37;95696.72;;;7.73
30001;BMP280;16845;48.670;9.000;2023-12-20T08:04:05;95697.03;;;7.53
30001;BMP280;16845;48.670;9.000;2023-12-20T08:06:32;95696.72;;;7.74
30001;BMP280;16845;48.670;9.000;2023-12-20T08:08:59;95686.91;;;7.62
30001;BMP280;16845;48.670;9.000;2023-12-20T08:11:32;95695.06;;;7.72
30001;BMP280;16845;48.670;9.000;2023-12-20T08:13:58;95689.75;;;7.91
30001;BMP280;16845;48.670;9.000;2023-12-20T08:16:25;95691.38;;;7.94
30001;BMP280;16845;48.670;9.000;2023-12-20T08:18:51;95705.97;;;7.66
30001;BMP280;16845;48.670;9.000;2023-12-20T08:21:19;95708.38;;;7.16
30001;BMP280;16845;48.670;9.000;2023-12-20T08:23:46;95708.72;;;7.50
30001;BMP280;16845;48.670;9.000;2023-12-20T08:26:12;95702.56;;;7.72
30001;BMP280;16845;48.670;9.000;2023-12-20T08:28:39;95711.44;;;7.35
30001;BMP280;16845;48.670;9.000;2023-12-20T08:31:05;95718.53;;;7.62
30001;BMP280;16845;48.670;9.000;2023-12-20T08:33:32;95710.50;;;7.42
30001;BMP280;16845;48.670;9.000;2023-12-20T08:35:59;95726.16;;;7.53
30001;BMP280;16845;48.670;9.000;2023-12-20T08:38:26;95723.19;;;7.27
30001;BMP280;16845;48.670;9.000;2023-12-20T08:40:53;95716.38;;;7.39
30001;BMP280;16845;48.670;9.000;2023-12-20T08:43:19;95716.41;;;7.36
30001;BMP280;16845;48.670;9.000;2023-12-20T08:45:46;95728.69;;;7.51
30001;BMP280;16845;48.670;9.000;2023-12-20T08:48:12;95743.00;;;7.37
30001;BMP280;16845;48.670;9.000;2023-12-20T08:50:39;95746.56;;;7.20
30001;BMP280;16845;48.670;9.000;2023-12-20T08:53:06;95757.44;;;7.14
30001;BMP280;16845;48.670;9.000;2023-12-20T08:55:34;95751.97;;;6.88
30001;BMP280;16845;48.670;9.000;2023-12-20T08:58:00;95758.44;;;7.03
30001;BMP280;16845;48.670;9.000;2023-12-20T09:00:27;95748.72;;;6.82
30001;BMP280;16845;48.670;9.000;2023-12-20T09:02:54;95756.16;;;6.87
30001;BMP280;16845;48.670;9.000;2023-12-20T09:05:20;95751.97;;;6.88
30001;BMP280;16845;48.670;9.000;2023-12-20T09:07:47;95748.81;;;6.75
30001;BMP280;16845;48.670;9.000;2023-12-20T09:10:14;95746.91;;;6.94
30001;BMP280;16845;48.670;9.000;2023-12-20T09:12:45;95746.13;;;6.89
30001;BMP280;16845;48.670;9.000;2023-12-20T09:15:11;95748.56;;;6.95
30001;BMP280;16845;48.670;9.000;2023-12-20T09:17:38;95743.09;;;6.64
30001;BMP280;16845;48.670;9.000;2023-12-20T09:20:05;95743.91;;;6.66
30001;BMP280;16845;48.670;9.000;2023-12-20T09:22:32;95736.38;;;6.72
30001;BMP280;16845;48.670;9.000;2023-12-20T09:24:58;95742.97;;;6.76
30001;BMP280;16845;48.670;9.000;2023-12-20T09:27:25;95751.44;;;6.63
30001;BMP280;16845;48.670;9.000;2023-12-20T09:29:53;95755.56;;;6.65
30001;BMP280;16845;48.670;9.000;2023-12-20T09:32:19;95747.25;;;6.66
30001;BMP280;16845;48.670;9.000;2023-12-20T09:34:47;95743.63;;;6.91
30001;BMP280;16845;48.670;9.000;2023-12-20T09:37:13;95740.50;;;7.39
30001;BMP280;16845;48.670;9.000;2023-12-20T09:39:40;95747.94;;;7.43
30001;BMP280;16845;48.670;9.000;2023-12-20T09:42:06;95754.63;;;7.41
30001;BMP280;16845;48.670;9.000;2023-12-20T09:44:34;95759.22;;;7.68
30001;BMP280;16845;48.670;9.000;2023-12-20T09:47:03;95760.47;;;7.96
30001;BMP280;16845;48.670;9.000;2023-12-20T09:49:30;95750.84;;;8.72
30001;BMP280;16845;48.670;9.000;2023-12-20T09:51:57;95758.59;;;9.43
30001;BMP280;16845;48.670;9.000;2023-12-20T09:54:24;95763.31;;;9.57
30001;BMP280;16845;48.670;9.000;2023-12-20T09:56:51;95772.38;;;9.23
30001;BMP280;16845;48.670;9.000;2023-12-20T09:59:18;95755.59;;;10.02
30001;BMP280;16845;48.670;9.000;2023-12-20T10:01:45;95754.69;;;10.73
30001;BMP280;16845;48.670;9.000;2023-12-20T10:04:13;95746.84;;;11.14
30001;BMP280;16845;48.670;9.000;2023-12-20T10:06:55;95741.44;;;11.57
30001;BMP280;16845;48.670;9.000;2023-12-20T10:09:21;95728.25;;;12.03
30001;BMP280;16845;48.670;9.000;2023-12-20T10:11:48;95723.66;;;12.42
30001;BMP280;16845;48.670;9.000;2023-12-20T10:14:16;95732.28;;;11.27
30001;BMP280;16845;48.670;9.000;2023-12-20T10:16:42;95743.81;;;9.69
30001;BMP280;16845;48.670;9.000;2023-12-20T10:19:09;95747.53;;;9.52
30001;BMP280;16845;48.670;9.000;2023-12-20T10:21:37;95743.09;;;9.27
30001;BMP280;16845;48.670;9.000;2023-12-20T10:24:04;95736.91;;;9.02
30001;BMP280;16845;48.670;9.000;2023-12-20T10:26:31;95727.16;;;8.90
30001;BMP280;16845;48.670;9.000;2023-12-20T10:29:00;95724.66;;;8.46
30001;BMP280;16845;48.670;9.000;2023-12-20T10:31:28;95713.06;;;8.43
30001;BMP280;16845;48.670;9.000;2023-12-20T10:33:56;95705.81;;;8.28
30001;BMP280;16845;48.670;9.000;2023-12-20T10:36:25;95703.38;;;8.25
30001;BMP280;16845;48.670;9.000;2023-12-20T10:38:53;95703.47;;;8.16
30001;BMP280;16845;48.670;9.000;2023-12-20T10:41:25;95702.63;;;8.17
30001;BMP280;16845;48.670;9.000;2023-12-20T10:43:52;95709.97;;;7.78
30001;BMP280;16845;48.670;9.000;2023-12-20T10:46:19;95702.69;;;8.14
30001;BMP280;16845;48.670;9.000;2023-12-20T10:48:46;95709.34;;;8.18
30001;BMP280;16845;48.670;9.000;2023-12-20T10:51:17;95710.59;;;7.92
30001;BMP280;16845;48.670;9.000;2023-12-20T10:53:44;95703.69;;;8.04
30001;BMP280;16845;48.670;9.000;2023-12-20T10:56:16;95706.19;;;8.04
30001;BMP280;16845;48.670;9.000;2023-12-20T10:58:43;95703.53;;;8.15
30001;BMP280;16845;48.670;9.000;2023-12-20T11:01:12;95700.94;;;8.22
30001;BMP280;16845;48.670;9.000;2023-12-20T11:03:43;95708.22;;;7.84
30001;BMP280;16845;48.670;9.000;2023-12-20T11:06:17;95704.81;;;7.87
30001;BMP280;16845;48.670;9.000;2023-12-20T11:08:49;95698.38;;;8.25
30001;BMP280;16845;48.670;9.000;2023-12-20T11:11:25;95695.06;;;8.23
30001;BMP280;16845;48.670;9.000;2023-12-20T11:13:56;95704.28;;;7.68
30001;BMP280;16845;48.670;9.000;2023-12-20T11:16:24;95699.28;;;7.68
30001;BMP280;16845;48.670;9.000;2023-12-20T11:18:53;95698.84;;;8.44
30001;BMP280;16845;48.670;9.000;2023-12-20T11:21:20;95692.97;;;8.46
30001;BMP280;16845;48.670;9.000;2023-12-20T11:23:47;95695.25;;;7.61
30001;BMP280;16845;48.670;9.000;2023-12-20T11:26:15;95692.81;;;8.07
30001;BMP280;16845;48.670;9.000;2023-12-20T11:28:43;95691.53;;;8.35
30001;BMP280;16845;48.670;9.000;2023-12-20T11:31:13;95687.91;;;8.02
30001;BMP280;16845;48.670;9.000;2023-12-20T11:33:40;95693.19;;;7.30
30001;BMP280;16845;48.670;9.000;2023-12-20T11:36:13;95693.22;;;7.84
30001;BMP280;16845;48.670;9.000;2023-12-20T11:38:53;95680.84;;;8.27
30001;BMP280;16845;48.670;9.000;2023-12-20T11:41:22;95678.44;;;8.22
30001;BMP280;16845;48.670;9.000;2023-12-20T11:43:53;95674.34;;;8.18
30001;BMP280;16845;48.670;9.000;2023-12-20T11:46:20;95679.63;;;8.00
30001;BMP280;16845;48.670;9.000;2023-12-20T11:48:47;95677.91;;;8.51
30001;BMP280;16845;48.670;9.000;2023-12-20T11:51:14;95684.50;;;7.56
30001;BMP280;16845;48.670;9.000;2023-12-20T11:53:41;95696.41;;;7.92
30001;BMP280;16845;48.670;9.000;2023-12-20T11:56:08;95687.41;;;7.82
30001;BMP280;16845;48.670;9.000;2023-12-20T11:58:35;95686.47;;;7.89
30001;BMP280;16845;48.670;9.000;2023-12-20T12:01:03;95687.31;;;7.88
30001;BMP280;16845;48.670;9.000;2023-12-20T12:03:31;95679.50;;;7.55
30001;BMP280;16845;48.670;9.000;2023-12-20T12:05:57;95681.91;;;7.05
30001;BMP280;16845;48.670;9.000;2023-12-20T12:08:24;95675.16;;;7.67
30001;BMP280;16845;48.670;9.000;2023-12-20T12:10:51;95666.59;;;7.29
30001;BMP280;16845;48.670;9.000;2023-12-20T12:13:18;95667.22;;;7.44
30001;BMP280;16845;48.670;9.000;2023-12-20T12:15:45;95661.72;;;8.26
30001;BMP280;16845;48.670;9.000;2023-12-20T12:18:15;95653.63;;;8.10
30001;BMP280;16845;48.670;9.000;2023-12-20T12:20:42;95654.47;;;8.56
30001;BMP280;16845;48.670;9.000;2023-12-20T12:23:09;95652.50;;;8.29
30001;BMP280;16845;48.670;9.000;2023-12-20T12:25:36;95650.25;;;8.58
30001;BMP280;16845;48.670;9.000;2023-12-20T12:28:08;95653.13;;;7.92
30001;BMP280;16845;48.670;9.000;2023-12-20T12:30:34;95654.13;;;8.30
30001;BMP280;16845;48.670;9.000;2023-12-20T12:33:12;95641.06;;;8.13
30001;BMP280;16845;48.670;9.000;2023-12-20T12:35:40;95637.06;;;8.05
30001;BMP280;16845;48.670;9.000;2023-12-20T12:38:07;95637.66;;;8.20
30001;BMP280;16845;48.670;9.000;2023-12-20T12:40:34;95634.66;;;8.00
30001;BMP280;16845;48.670;9.000;2023-12-20T12:43:01;95634.25;;;8.23
30001;BMP280;16845;48.670;9.000;2023-12-20T12:45:27;95639.44;;;8.58
30001;BMP280;16845;48.670;9.000;2023-12-20T12:47:54;95630.78;;;8.72
30001;BMP280;16845;48.670;9.000;2023-12-20T12:50:22;95643.81;;;8.88
30001;BMP280;16845;48.670;9.000;2023-12-20T12:52:49;95635.13;;;8.64
30001;BMP280;16845;48.670;9.000;2023-12-20T12:55:16;95641.34;;;8.86
30001;BMP280;16845;48.670;9.000;2023-12-20T12:57:42;95629.38;;;8.15
30001;BMP280;16845;48.670;9.000;2023-12-20T13:00:10;95634.94;;;8.73
30001;BMP280;16845;48.670;9.000;2023-12-20T13:02:36;95640.53;;;8.43
30001;BMP280;16845;48.670;9.000;2023-12-20T13:05:04;95642.47;;;8.72
30001;BMP280;16845;48.670;9.000;2023-12-20T13:07:32;95641.41;;;8.42
30001;BMP280;16845;48.670;9.000;2023-12-20T13:09:58;95636.56;;;8.74
30001;BMP280;16845;48.670;9.000;2023-12-20T13:12:25;95632.34;;;8.78
30001;BMP280;16845;48.670;9.000;2023-12-20T13:14:51;95633.66;;;8.54
30001;BMP280;16845;48.670;9.000;2023-12-20T13:17:18;95635.53;;;8.43
30001;BMP280;16845;48.670;9.000;2023-12-20T13:19:45;95638.28;;;8.31
30001;BMP280;16845;48.670;9.000;2023-12-20T13:22:11;95628.44;;;8.24
30001;BMP280;16845;48.670;9.000;2023-12-20T13:24:39;95619.25;;;8.23
30001;BMP280;16845;48.670;9.000;2023-12-20T13:27:06;95628.16;;;8.78
30001;BMP280;16845;48.670;9.000;2023-12-20T13:29:32;95628.44;;;9.04
30001;BMP280;16845;48.670;9.000;2023-12-20T13:32:00;95620.94;;;8.22
30001;BMP280;16845;48.670;9.000;2023-12-20T13:34:27;95632.75;;;8.58
30001;BMP280;16845;48.670;9.000;2023-12-20T13:36:54;95642.19;;;8.44
30001;BMP280;16845;48.670;9.000;2023-12-20T13:39:20;95640.66;;;9.18
30001;BMP280;16845;48.670;9.000;2023-12-20T13:41:48;95631.44;;;8.82
30001;BMP280;16845;48.670;9.000;2023-12-20T13:44:15;95632.84;;;8.93
30001;BMP280;16845;48.670;9.000;2023-12-20T13:46:41;95632.09;;;8.03
30001;BMP280;16845;48.670;9.000;2023-12-20T13:49:08;95628.00;;;8.45
30001;BMP280;16845;48.670;9.000;2023-12-20T13:51:35;95636.94;;;8.12
30001;BMP280;16845;48.670;9.000;2023-12-20T13:54:01;95638.38;;;8.27
30001;BMP280;16845;48.670;9.000;2023-12-20T13:56:28;95647.13;;;7.52
30001;BMP280;16845;48.670;9.000;2023-12-20T13:58:56;95646.25;;;7.54
30001;BMP280;16845;48.670;9.000;2023-12-20T14:01:23;95645.63;;;7.92
30001;BMP280;16845;48.670;9.000;2023-12-20T14:03:49;95645.00;;;7.28
30001;BMP280;16845;48.670;9.000;2023-12-20T14:06:16;95633.56;;;7.68
30001;BMP280;16845;48.670;9.000;2023-12-20T14:08:42;95638.34;;;7.78
30001;BMP280;16845;48.670;9.000;2023-12-20T14:11:09;95641.63;;;7.82
30001;BMP280;16845;48.670;9.000;2023-12-20T14:13:36;95638.22;;;7.87
30001;BMP280;16845;48.670;9.000;2023-12-20T14:16:04;95633.97;;;7.42
30001;BMP280;16845;48.670;9.000;2023-12-20T14:18:31;95627.63;;;7.20
30001;BMP280;16845;48.670;9.000;2023-12-20T14:20:58;95637.06;;;7.02